Time;durP1;ratioP1;P1;durP2;ratioP2;P2;SDS_P1;SDS_P2;PMS_P1;PMS_P2;Temp;Humidity;BMP_temperature;BMP_pressure;BME280_temperature;BME280_humidity;BME280_pressure;Samples;Min_cycle;Max_cycle;Signal;HPM_P1;HPM_P2
2021/08/04 00:02:22;;;;;;;;;;;14.80;99.90;;;;;;5056166;28;19947;-79
2021/08/04 00:04:49;;;;;;;;;;;14.70;99.90;;;;;;5055924;28;19921;-79
2021/08/04 00:07:17;;;;;;;;;;;14.70;99.90;;;;;;5056292;28;19931;-79
2021/08/04 00:09:44;;;;;;;;;;;14.60;99.90;;;;;;5055917;28;20011;-78
2021/08/04 00:12:11;;;;;;;;;;;14.60;99.90;;;;;;5054961;28;20231;-76
2021/08/04 00:14:38;;;;;;;;;;;14.60;99.90;;;;;;5055716;28;19920;-79
2021/08/04 00:17:05;;;;;;;;;;;14.50;99.90;;;;;;5055606;28;19920;-79
2021/08/04 00:19:33;;;;;;;;;;;14.50;99.90;;;;;;5055240;28;20325;-79
2021/08/04 00:22:00;;;;;;;;;;;14.50;99.90;;;;;;5055772;28;19931;-79
2021/08/04 00:24:28;;;;;;;;;;;14.50;99.90;;;;;;5055677;28;19925;-79
2021/08/04 00:26:55;;;;;;;;;;;14.40;99.90;;;;;;5055747;28;19925;-78
2021/08/04 00:29:22;;;;;;;;;;;14.40;99.90;;;;;;5055482;28;19928;-80
2021/08/04 00:31:49;;;;;;;;;;;14.40;99.90;;;;;;5055522;28;20262;-79
2021/08/04 00:34:16;;;;;;;;;;;14.30;99.90;;;;;;5055383;28;19925;-79
2021/08/04 00:36:42;;;;;;;;;;;14.30;99.90;;;;;;5055434;28;19935;-80
2021/08/04 00:39:09;;;;;;;;;;;14.30;99.90;;;;;;5055605;28;19935;-79
2021/08/04 00:41:38;;;;;;;;;;;14.30;99.90;;;;;;5055239;28;20347;-78
2021/08/04 00:44:05;;;;;;;;;;;14.30;99.90;;;;;;5055145;28;19924;-79
2021/08/04 00:46:32;;;;;;;;;;;14.30;99.90;;;;;;5055132;28;19931;-79
2021/08/04 00:48:59;;;;;;;;;;;14.30;99.90;;;;;;5055503;28;19924;-79
2021/08/04 00:51:26;;;;;;;;;;;14.30;99.90;;;;;;5055118;28;19987;-79
2021/08/04 00:53:52;;;;;;;;;;;14.20;99.90;;;;;;5055062;28;19935;-78
2021/08/04 00:56:19;;;;;;;;;;;14.20;99.90;;;;;;5055198;28;19925;-78
2021/08/04 00:58:47;;;;;;;;;;;14.20;99.90;;;;;;5055056;28;19929;-79
2021/08/04 01:01:15;;;;;;;;;;;14.10;99.90;;;;;;5054966;28;19928;-80
2021/08/04 01:03:43;;;;;;;;;;;14.10;99.90;;;;;;5055020;28;19935;-79
2021/08/04 01:06:12;;;;;;;;;;;14.10;99.90;;;;;;5055100;28;19924;-79
2021/08/04 01:08:39;;;;;;;;;;;14.00;99.90;;;;;;5054978;28;20335;-79
2021/08/04 01:11:05;;;;;;;;;;;14.00;99.90;;;;;;5055023;28;20281;-80
2021/08/04 01:13:33;;;;;;;;;;;13.90;99.90;;;;;;5054871;28;19943;-79
2021/08/04 01:16:04;;;;;;;;;;;13.90;99.90;;;;;;5054687;28;20232;-80
2021/08/04 01:18:33;;;;;;;;;;;13.90;99.90;;;;;;5055203;28;19924;-80
2021/08/04 01:21:00;;;;;;;;;;;13.80;99.90;;;;;;5054888;28;19924;-80
2021/08/04 01:23:29;;;;;;;;;;;13.80;99.90;;;;;;5056896;28;19947;-80
2021/08/04 01:25:57;;;;;;;;;;;13.70;99.90;;;;;;5059047;28;19925;-80
2021/08/04 01:28:27;;;;;;;;;;;13.70;99.90;;;;;;5059446;28;19925;-80
2021/08/04 01:30:56;;;;;;;;;;;13.70;99.90;;;;;;5058994;28;20023;-80
2021/08/04 01:33:23;;;;;;;;;;;13.70;99.90;;;;;;5059003;28;19936;-80
2021/08/04 01:35:50;;;;;;;;;;;13.70;99.90;;;;;;5058843;28;19935;-80
2021/08/04 01:38:17;;;;;;;;;;;13.70;99.90;;;;;;5058994;28;20350;-78
2021/08/04 01:40:44;;;;;;;;;;;13.70;99.90;;;;;;5059018;28;19924;-79
2021/08/04 01:43:11;;;;;;;;;;;13.60;99.90;;;;;;5058861;28;19935;-79
2021/08/04 01:45:39;;;;;;;;;;;13.60;99.90;;;;;;5058547;28;19925;-80
2021/08/04 01:48:06;;;;;;;;;;;13.60;99.90;;;;;;5058668;28;19924;-80
2021/08/04 01:50:33;;;;;;;;;;;13.60;99.90;;;;;;5058710;28;19925;-80
2021/08/04 01:53:00;;;;;;;;;;;13.70;99.90;;;;;;5058551;28;19951;-81
2021/08/04 01:55:27;;;;;;;;;;;13.60;99.90;;;;;;5058462;28;20285;-80
2021/08/04 01:57:54;;;;;;;;;;;13.60;99.90;;;;;;5058383;28;19943;-80
2021/08/04 02:00:20;;;;;;;;;;;13.50;99.90;;;;;;5058596;28;19924;-80
2021/08/04 02:02:49;;;;;;;;;;;13.50;99.90;;;;;;5058400;28;20239;-79
2021/08/04 02:05:15;;;;;;;;;;;13.50;99.90;;;;;;5058331;28;19929;-80
2021/08/04 02:07:49;;;;;;;;;;;13.50;99.90;;;;;;5058272;28;19936;-81
2021/08/04 02:10:18;;;;;;;;;;;13.50;99.90;;;;;;5058106;28;19936;-79
2021/08/04 02:12:46;;;;;;;;;;;13.50;99.90;;;;;;5057983;28;19929;-80
2021/08/04 02:15:13;;;;;;;;;;;13.50;99.90;;;;;;5058356;28;19935;-80
2021/08/04 02:17:40;;;;;;;;;;;13.40;99.90;;;;;;5057916;28;19935;-79
2021/08/04 02:20:10;;;;;;;;;;;13.40;99.90;;;;;;5057955;28;20253;-79
2021/08/04 02:22:38;;;;;;;;;;;13.30;99.90;;;;;;5058133;28;19935;-81
2021/08/04 02:25:06;;;;;;;;;;;13.30;99.90;;;;;;5058080;28;19929;-79
2021/08/04 02:27:34;;;;;;;;;;;13.20;99.90;;;;;;5057969;28;19925;-80
2021/08/04 02:30:00;;;;;;;;;;;13.20;99.90;;;;;;5058211;28;19935;-80
2021/08/04 02:32:27;;;;;;;;;;;13.20;99.90;;;;;;5057889;28;19925;-80
2021/08/04 02:34:54;;;;;;;;;;;13.20;99.90;;;;;;5056864;28;20381;-78
2021/08/04 02:37:22;;;;;;;;;;;13.20;99.90;;;;;;5057800;28;19952;-79
2021/08/04 02:39:49;;;;;;;;;;;13.20;99.90;;;;;;5057751;28;19935;-80
2021/08/04 02:42:16;;;;;;;;;;;13.20;99.90;;;;;;5057701;28;19928;-80
2021/08/04 02:44:43;;;;;;;;;;;13.20;99.90;;;;;;5057491;28;19931;-80
2021/08/04 02:47:10;;;;;;;;;;;13.20;99.90;;;;;;5057457;28;19925;-78
2021/08/04 02:49:37;;;;;;;;;;;13.20;99.90;;;;;;5057516;28;19936;-78
2021/08/04 02:52:04;;;;;;;;;;;13.20;99.90;;;;;;5057286;28;19933;-79
2021/08/04 02:54:32;;;;;;;;;;;13.20;99.90;;;;;;5057568;28;20385;-81
2021/08/04 02:56:59;;;;;;;;;;;13.20;99.90;;;;;;5057388;28;19925;-81
2021/08/04 02:59:25;;;;;;;;;;;13.20;99.90;;;;;;5057315;28;20367;-79
2021/08/04 03:01:52;;;;;;;;;;;13.20;99.90;;;;;;5057189;28;19929;-79
2021/08/04 03:04:19;;;;;;;;;;;13.10;99.90;;;;;;5057418;28;19925;-80
2021/08/04 03:06:46;;;;;;;;;;;13.00;99.90;;;;;;5057011;28;19940;-80
2021/08/04 03:09:13;;;;;;;;;;;13.00;99.90;;;;;;5057081;28;19924;-80
2021/08/04 03:11:41;;;;;;;;;;;13.00;99.90;;;;;;5057071;28;19952;-79
2021/08/04 03:14:08;;;;;;;;;;;13.00;99.90;;;;;;5056987;28;19925;-79
2021/08/04 03:16:35;;;;;;;;;;;12.90;99.90;;;;;;5056642;28;19925;-80
2021/08/04 03:19:01;;;;;;;;;;;12.90;99.90;;;;;;5057123;28;19947;-79
2021/08/04 03:21:28;;;;;;;;;;;12.90;99.90;;;;;;5056837;28;19931;-79
2021/08/04 03:23:55;;;;;;;;;;;12.90;99.90;;;;;;5057087;28;19925;-78
2021/08/04 03:26:22;;;;;;;;;;;12.90;99.90;;;;;;5056589;28;20307;-78
2021/08/04 03:28:50;;;;;;;;;;;12.90;99.90;;;;;;5056599;28;19936;-79
2021/08/04 03:31:17;;;;;;;;;;;12.80;99.90;;;;;;5056863;28;20276;-79
2021/08/04 03:33:44;;;;;;;;;;;12.80;99.90;;;;;;5056632;28;19935;-78
2021/08/04 03:36:11;;;;;;;;;;;12.80;99.90;;;;;;5056903;28;19924;-79
2021/08/04 03:38:37;;;;;;;;;;;12.80;99.90;;;;;;5056648;28;19928;-78
2021/08/04 03:41:04;;;;;;;;;;;12.70;99.90;;;;;;5056487;28;20346;-79
2021/08/04 03:43:31;;;;;;;;;;;12.70;99.90;;;;;;5056724;28;19925;-80
2021/08/04 03:45:59;;;;;;;;;;;12.70;99.90;;;;;;5056379;28;19936;-81
2021/08/04 03:48:26;;;;;;;;;;;12.70;99.90;;;;;;5056293;28;20364;-79
2021/08/04 03:50:53;;;;;;;;;;;12.60;99.90;;;;;;5056324;28;19935;-79
2021/08/04 03:53:20;;;;;;;;;;;12.60;99.90;;;;;;5056188;28;20036;-78
2021/08/04 03:55:47;;;;;;;;;;;12.60;99.90;;;;;;5056296;28;19935;-80
2021/08/04 03:58:13;;;;;;;;;;;12.60;99.90;;;;;;5056096;28;20282;-80
2021/08/04 04:00:42;;;;;;;;;;;12.60;99.90;;;;;;5056053;28;19925;-78
2021/08/04 04:03:11;;;;;;;;;;;12.60;99.90;;;;;;5056085;28;19947;-79
2021/08/04 04:05:37;;;;;;;;;;;12.60;99.90;;;;;;5055854;28;19924;-78
2021/08/04 04:08:04;;;;;;;;;;;12.50;99.90;;;;;;5056064;28;19925;-79
2021/08/04 04:10:31;;;;;;;;;;;12.50;99.90;;;;;;5055946;28;19936;-80
2021/08/04 04:12:58;;;;;;;;;;;12.50;99.90;;;;;;5055876;28;20339;-79
2021/08/04 04:15:25;;;;;;;;;;;12.50;99.90;;;;;;5055846;28;19924;-79
2021/08/04 04:17:52;;;;;;;;;;;12.40;99.90;;;;;;5055686;28;19925;-79
2021/08/04 04:20:20;;;;;;;;;;;12.40;99.90;;;;;;5055825;28;19925;-79
2021/08/04 04:22:47;;;;;;;;;;;12.40;99.90;;;;;;5055766;28;19929;-79
2021/08/04 04:25:14;;;;;;;;;;;12.40;99.90;;;;;;5056050;28;19936;-81
2021/08/04 04:27:41;;;;;;;;;;;12.40;99.90;;;;;;5055682;28;19925;-79
2021/08/04 04:30:08;;;;;;;;;;;12.40;99.90;;;;;;5055484;28;20346;-79
2021/08/04 04:32:35;;;;;;;;;;;12.30;99.90;;;;;;5055321;28;19931;-79
2021/08/04 04:35:02;;;;;;;;;;;12.30;99.90;;;;;;5055582;28;19924;-81
2021/08/04 04:37:30;;;;;;;;;;;12.30;99.90;;;;;;5055543;28;19925;-78
2021/08/04 04:39:57;;;;;;;;;;;12.30;99.90;;;;;;5055644;28;19928;-79
2021/08/04 04:42:24;;;;;;;;;;;12.30;99.90;;;;;;5055391;28;19925;-78
2021/08/04 04:44:50;;;;;;;;;;;12.30;99.90;;;;;;5055485;28;19936;-78
2021/08/04 04:47:17;;;;;;;;;;;12.30;99.90;;;;;;5055229;28;20376;-79
2021/08/04 04:49:44;;;;;;;;;;;12.20;99.90;;;;;;5055156;28;19925;-78
2021/08/04 04:52:11;;;;;;;;;;;12.20;99.90;;;;;;5055449;28;19928;-82
2021/08/04 04:54:39;;;;;;;;;;;12.20;99.90;;;;;;5055137;28;20269;-78
2021/08/04 04:57:06;;;;;;;;;;;12.20;99.90;;;;;;5055405;28;19929;-80
2021/08/04 04:59:33;;;;;;;;;;;12.20;99.90;;;;;;5055017;28;19925;-78
2021/08/04 05:02:00;;;;;;;;;;;12.20;99.90;;;;;;5055287;28;20239;-79
2021/08/04 05:04:26;;;;;;;;;;;12.20;99.90;;;;;;5054963;28;19924;-79
2021/08/04 05:06:53;;;;;;;;;;;12.20;99.90;;;;;;5055039;28;19932;-78
2021/08/04 05:09:20;;;;;;;;;;;12.20;99.90;;;;;;5054910;28;19924;-78
2021/08/04 05:11:48;;;;;;;;;;;12.20;99.90;;;;;;5054946;28;19928;-79
2021/08/04 05:14:15;;;;;;;;;;;12.20;99.90;;;;;;5054934;28;19924;-78
2021/08/04 05:16:42;;;;;;;;;;;12.20;99.90;;;;;;5054878;28;19925;-79
2021/08/04 05:19:09;;;;;;;;;;;12.30;99.90;;;;;;5055024;28;19925;-78
2021/08/04 05:21:35;;;;;;;;;;;12.30;99.90;;;;;;5055156;28;19925;-79
2021/08/04 05:24:02;;;;;;;;;;;12.40;99.90;;;;;;5054828;28;19924;-79
2021/08/04 05:26:29;;;;;;;;;;;12.40;99.90;;;;;;5054988;28;20211;-78
2021/08/04 05:28:59;;;;;;;;;;;12.40;99.90;;;;;;5055037;28;19925;-78
2021/08/04 05:31:25;;;;;;;;;;;12.40;99.90;;;;;;5055173;28;19925;-78
2021/08/04 05:33:52;;;;;;;;;;;12.50;99.90;;;;;;5054805;28;19939;-79
2021/08/04 05:36:19;;;;;;;;;;;12.50;99.90;;;;;;5054778;28;20254;-78
2021/08/04 05:38:46;;;;;;;;;;;12.60;99.90;;;;;;5054836;28;19948;-78
2021/08/04 05:41:13;;;;;;;;;;;12.60;99.90;;;;;;5054867;28;19924;-79
2021/08/04 05:43:40;;;;;;;;;;;12.60;99.90;;;;;;5054832;28;19924;-79
2021/08/04 05:46:08;;;;;;;;;;;12.70;99.90;;;;;;5054499;28;19924;-80
2021/08/04 05:48:35;;;;;;;;;;;12.70;99.90;;;;;;5055138;28;19924;-79
2021/08/04 05:51:01;;;;;;;;;;;12.80;99.90;;;;;;5054728;28;20354;-79
2021/08/04 05:53:28;;;;;;;;;;;12.80;99.90;;;;;;5054614;28;19929;-78
2021/08/04 05:55:55;;;;;;;;;;;12.90;99.90;;;;;;5054795;28;19925;-79
2021/08/04 05:58:22;;;;;;;;;;;12.90;99.90;;;;;;5054744;28;19950;-79
2021/08/04 06:00:49;;;;;;;;;;;13.00;99.90;;;;;;5054786;28;19935;-79
2021/08/04 06:03:17;;;;;;;;;;;13.10;99.90;;;;;;5054616;28;19925;-79
2021/08/04 06:05:44;;;;;;;;;;;13.20;99.90;;;;;;5054819;28;20359;-80
2021/08/04 06:08:11;;;;;;;;;;;13.40;99.90;;;;;;5054645;28;19924;-80
2021/08/04 06:10:38;;;;;;;;;;;13.40;99.90;;;;;;5056312;28;20414;-80
2021/08/04 06:13:04;;;;;;;;;;;13.60;99.90;;;;;;5058017;28;19936;-80
2021/08/04 06:15:31;;;;;;;;;;;13.70;99.90;;;;;;5058321;28;19924;-79
2021/08/04 06:17:58;;;;;;;;;;;13.80;99.90;;;;;;5057919;28;19929;-79
2021/08/04 06:20:26;;;;;;;;;;;13.90;99.90;;;;;;5058077;28;19936;-80
2021/08/04 06:22:53;;;;;;;;;;;14.00;99.90;;;;;;5057922;28;20381;-80
2021/08/04 06:25:20;;;;;;;;;;;14.10;99.90;;;;;;5057943;28;19935;-81
2021/08/04 06:27:47;;;;;;;;;;;14.30;99.90;;;;;;5057897;28;19924;-80
2021/08/04 06:30:14;;;;;;;;;;;14.60;99.90;;;;;;5057962;28;19979;-80
2021/08/04 06:32:40;;;;;;;;;;;14.90;99.90;;;;;;5057997;28;20251;-80
2021/08/04 06:35:09;;;;;;;;;;;15.30;99.90;;;;;;5057756;28;19925;-80
2021/08/04 06:37:37;;;;;;;;;;;16.20;99.90;;;;;;5057920;28;19935;-80
2021/08/04 06:40:05;;;;;;;;;;;17.10;99.90;;;;;;5057621;28;19925;-79
2021/08/04 06:42:31;;;;;;;;;;;17.60;99.90;;;;;;5057768;28;19924;-79
2021/08/04 06:44:58;;;;;;;;;;;18.30;99.90;;;;;;5057838;28;19928;-79
2021/08/04 06:47:25;;;;;;;;;;;19.40;99.90;;;;;;5057490;28;20247;-79
2021/08/04 06:49:52;;;;;;;;;;;20.70;99.90;;;;;;5057522;28;19951;-79
2021/08/04 06:52:19;;;;;;;;;;;21.50;99.90;;;;;;5057598;28;19925;-79
2021/08/04 06:54:47;;;;;;;;;;;22.00;99.90;;;;;;5057489;28;20267;-79
2021/08/04 06:57:14;;;;;;;;;;;22.70;99.90;;;;;;5057634;28;19925;-79
2021/08/04 06:59:40;;;;;;;;;;;23.10;99.90;;;;;;5057395;28;20267;-79
2021/08/04 07:02:07;;;;;;;;;;;22.90;99.90;;;;;;5057508;28;19925;-79
2021/08/04 07:04:34;;;;;;;;;;;22.50;99.90;;;;;;5057094;28;19925;-80
2021/08/04 07:07:01;;;;;;;;;;;21.60;99.90;;;;;;5057184;28;19924;-79
2021/08/04 07:09:28;;;;;;;;;;;20.90;99.90;;;;;;5057262;28;19925;-79
2021/08/04 07:11:56;;;;;;;;;;;20.20;99.90;;;;;;5057219;28;19925;-79
2021/08/04 07:14:23;;;;;;;;;;;19.80;99.90;;;;;;5057098;28;19925;-79
2021/08/04 07:16:50;;;;;;;;;;;19.30;99.90;;;;;;5056793;28;19925;-79
2021/08/04 07:19:17;;;;;;;;;;;18.80;99.90;;;;;;5057145;28;19925;-79
2021/08/04 07:21:44;;;;;;;7.88;5.13;;;18.40;99.90;;;;;;5055315;28;20422;-79
2021/08/04 07:24:11;;;;;;;;;;;18.00;99.90;;;;;;5057035;28;20056;-79
2021/08/04 07:26:39;;;;;;;10.07;4.88;;;18.00;99.90;;;;;;5056525;28;20425;-79
2021/08/04 07:29:07;;;;;;;;;;;18.40;99.90;;;;;;5056766;28;20049;-79
2021/08/04 07:31:34;;;;;;;;;;;19.60;99.90;;;;;;5056578;28;19932;-79
2021/08/04 07:34:01;;;;;;;;;;;21.20;99.90;;;;;;5056562;28;19928;-79
2021/08/04 07:36:28;;;;;;;;;;;23.20;99.90;;;;;;5056540;28;19921;-79
2021/08/04 07:38:56;;;;;;;;;;;25.40;99.90;;;;;;5056514;28;19931;-78
2021/08/04 07:41:24;;;;;;;;;;;26.80;96.70;;;;;;5056396;28;19924;-79
2021/08/04 07:43:52;;;;;;;;;;;28.10;87.20;;;;;;5056437;28;19928;-79
2021/08/04 07:46:26;;;;;;;;;;;29.10;68.40;;;;;;5056274;28;19930;-76
2021/08/04 07:48:54;;;;;;;;;;;29.40;63.80;;;;;;5056234;28;20281;-76
2021/08/04 07:51:22;;;;;;;;;;;29.70;65.00;;;;;;5056113;28;20259;-76
2021/08/04 07:53:50;;;;;;;5.95;3.80;;;30.60;69.40;;;;;;5055290;28;20423;-76
2021/08/04 07:56:22;;;;;;;4.57;3.30;;;31.20;72.60;;;;;;5055688;28;20049;-76
2021/08/04 07:58:52;;;;;;;7.65;4.85;;;31.70;65.90;;;;;;5055680;28;20137;-76
2021/08/04 08:01:24;;;;;;;7.05;4.55;;;31.90;57.90;;;;;;5055515;28;20526;-76
2021/08/04 08:03:54;;;;;;;11.52;4.70;;;31.70;58.00;;;;;;5055892;28;20049;-76
2021/08/04 08:06:23;;;;;;;11.70;5.00;;;31.60;57.70;;;;;;5055581;28;20053;-76
2021/08/04 08:08:51;;;;;;;7.22;5.35;;;31.60;56.80;;;;;;5055732;28;20045;-76
2021/08/04 08:11:20;;;;;;;8.32;5.93;;;31.40;57.10;;;;;;5055406;28;20049;-76
2021/08/04 08:13:48;;;;;;;7.50;4.97;;;30.10;58.10;;;;;;5055213;28;20466;-76
2021/08/04 08:16:16;;;;;;;8.98;6.07;;;28.90;60.20;;;;;;5054950;28;20390;-76
2021/08/04 08:18:45;;;;;;;8.07;5.18;;;27.50;64.30;;;;;;5055406;28;20382;-76
2021/08/04 08:21:17;;;;;;;10.25;5.88;;;26.20;73.30;;;;;;5055235;28;20044;-76
2021/08/04 08:23:45;;;;;;;16.05;6.35;;;24.80;90.80;;;;;;5055352;28;20071;-76
2021/08/04 08:26:13;;;;;;;10.95;6.05;;;23.50;97.40;;;;;;5055359;28;20056;-76
2021/08/04 08:28:41;;;;;;;13.65;6.38;;;22.60;99.90;;;;;;5055109;28;20063;-76
2021/08/04 08:31:12;;;;;;;8.70;6.07;;;22.00;99.90;;;;;;5054824;28;20075;-75
2021/08/04 08:33:41;;;;;;;12.05;7.50;;;21.60;99.90;;;;;;5054194;28;20053;-75
2021/08/04 08:36:11;;;;;;;14.05;6.25;;;21.30;99.90;;;;;;5055121;28;20049;-75
2021/08/04 08:38:41;;;;;;;13.65;5.97;;;21.00;99.90;;;;;;5055112;28;20191;-75
2021/08/04 08:41:09;;;;;;;11.23;6.15;;;20.90;99.90;;;;;;5055105;28;20140;-75
2021/08/04 08:43:40;;;;;;;15.63;6.63;;;20.70;99.90;;;;;;5054798;28;20384;-75
2021/08/04 08:46:08;;;;;;;13.35;6.80;;;20.50;99.90;;;;;;5055155;28;20441;-75
2021/08/04 08:48:36;;;;;;;;;;;20.40;99.90;;;;;;5055278;28;20053;-75
2021/08/04 08:51:04;;;;;;;;;;;20.30;99.90;;;;;;5055233;28;19921;-75
2021/08/04 08:53:34;;;;;;;;;;;20.20;99.90;;;;;;5055277;28;19920;-75
2021/08/04 08:56:02;;;;;;;;;;;20.00;99.90;;;;;;5055494;28;20338;-75
2021/08/04 08:58:31;;;;;;;;;;;20.00;99.90;;;;;;5055038;28;20406;-75
2021/08/04 09:00:59;;;;;;;;;;;19.90;99.90;;;;;;5055195;28;19921;-75
2021/08/04 09:03:30;;;;;;;14.55;6.68;;;19.90;99.90;;;;;;5054434;28;20481;-75
2021/08/04 09:05:58;;;;;;;;;;;19.80;99.90;;;;;;5055038;28;20053;-75
2021/08/04 09:08:26;;;;;;;;;;;19.70;99.90;;;;;;5069120;28;19920;-75
2021/08/04 09:10:56;;;;;;;;;;;19.70;99.90;;;;;;5075264;28;19931;-75
2021/08/04 09:13:33;;;;;;;;;;;19.70;99.90;;;;;;5074946;28;20235;-75
2021/08/04 09:16:05;;;;;;;;;;;19.70;99.90;;;;;;5075026;28;19935;-75
2021/08/04 09:18:42;;;;;;;;;;;19.60;99.90;;;;;;5075316;28;19986;-76
2021/08/04 09:21:10;;;;;;;;;;;19.60;99.90;;;;;;5074921;28;19921;-82
2021/08/04 09:23:42;;;;;;;;;;;19.60;99.90;;;;;;5074823;28;19926;-84
2021/08/04 09:26:12;;;;;;;;;;;19.50;99.90;;;;;;5074899;28;20084;-83
2021/08/04 09:28:53;;;;;;;;;;;19.50;99.90;;;;;;5075034;28;19920;-82
2021/08/04 09:31:20;;;;;;;;;;;19.50;99.90;;;;;;5074918;28;19936;-81
2021/08/04 09:33:48;;;;;;;;;;;19.60;99.90;;;;;;5074915;28;20257;-82
2021/08/04 09:36:26;;;;;;;;;;;19.50;99.90;;;;;;5074884;28;19920;-82
2021/08/04 09:39:02;;;;;;;;;;;19.50;99.90;;;;;;5074776;28;19934;-79
2021/08/04 09:41:32;;;;;;;;;;;19.50;99.90;;;;;;5074860;28;20501;-78
2021/08/04 09:44:06;;;;;;;;;;;19.50;99.90;;;;;;5075615;28;19921;-78
2021/08/04 09:46:34;;;;;;;;;;;19.50;99.90;;;;;;5078636;28;20276;-78
2021/08/04 09:49:10;;;;;;;;;;;19.60;99.90;;;;;;5078690;28;19931;-77
2021/08/04 09:51:37;;;;;;;;;;;19.60;99.90;;;;;;5078702;28;19927;-78
2021/08/04 09:54:07;;;;;;;;;;;19.50;99.90;;;;;;5078726;28;19931;-78
2021/08/04 09:56:35;;;;;;;;;;;19.60;99.90;;;;;;5078439;28;19921;-79
2021/08/04 09:59:08;;;;;;;;;;;19.50;99.90;;;;;;5078699;28;19921;-78
2021/08/04 10:01:38;;;;;;;;;;;19.50;99.90;;;;;;5078370;28;20451;-86
2021/08/04 10:04:05;;;;;;;;;;;19.40;99.90;;;;;;5078372;28;19998;-78
2021/08/04 10:06:32;;;;;;;;;;;19.40;99.90;;;;;;5078032;28;20338;-78
2021/08/04 10:09:00;;;;;;;;;;;19.40;99.90;;;;;;5078252;28;19920;-79
2021/08/04 10:11:27;;;;;;;;;;;19.40;99.90;;;;;;5078206;28;19931;-79
2021/08/04 10:13:56;;;;;;;;;;;19.50;99.90;;;;;;5078178;28;19920;-82
2021/08/04 10:16:23;;;;;;;;;;;19.60;99.90;;;;;;5078079;28;19928;-79
2021/08/04 10:18:50;;;;;;;;;;;19.60;99.90;;;;;;5078148;28;19924;-78
2021/08/04 10:21:17;;;;;;;;;;;19.60;99.90;;;;;;5078046;28;19928;-79
2021/08/04 10:23:47;;;;;;;;;;;19.70;99.90;;;;;;5078069;28;19928;-79
2021/08/04 10:26:15;;;;;;;;;;;19.70;99.90;;;;;;5093758;28;19920;-79
2021/08/04 10:28:43;;;;;;;;;;;19.80;99.90;;;;;;5078149;28;20338;-79
2021/08/04 10:31:14;;;;;;;;;;;19.90;99.90;;;;;;5078124;28;20238;-80
2021/08/04 10:33:42;;;;;;;;;;;20.00;99.90;;;;;;5077718;28;19921;-79
2021/08/04 10:36:11;;;;;;;;;;;20.00;99.90;;;;;;5078067;28;19920;-79
2021/08/04 10:38:43;;;;;;;;;;;20.10;99.90;;;;;;5071998;28;20334;-79
2021/08/04 10:41:13;;;;;;;;;;;20.20;99.90;;;;;;5077727;28;19936;-79
2021/08/04 10:43:43;;;;;;;;;;;20.30;99.90;;;;;;5077495;28;19924;-79
2021/08/04 10:46:30;;;;;;;;;;;20.30;99.90;;;;;;5078048;28;19925;-79
2021/08/04 10:48:58;;;;;;;;;;;20.30;99.90;;;;;;5077568;28;20022;-79
2021/08/04 10:51:26;;;;;;;;;;;20.30;99.90;;;;;;5077357;28;20269;-79
2021/08/04 10:54:16;;;;;;;;;;;20.20;99.90;;;;;;5077304;28;20357;-79
2021/08/04 10:57:02;;;;;;;;;;;20.20;99.90;;;;;;5076531;28;19938;-79
2021/08/04 10:59:30;;;;;;;;;;;20.20;99.90;;;;;;5077526;28;20017;-79
2021/08/04 11:02:18;;;;;;;;;;;20.20;99.90;;;;;;5077218;28;19931;-79
2021/08/04 11:05:00;;;;;;;;;;;20.20;99.90;;;;;;5076852;28;19921;-79
2021/08/04 11:07:30;;;;;;;;;;;20.20;99.90;;;;;;5077212;28;19920;-79
2021/08/04 11:10:01;;;;;;;;;;;20.20;99.90;;;;;;5077133;28;20308;-79
2021/08/04 11:12:46;;;;;;;;;;;20.30;99.90;;;;;;5077409;28;19930;-79
2021/08/04 11:15:21;;;;;;;;;;;20.30;99.90;;;;;;5076738;28;19924;-79
2021/08/04 11:18:05;;;;;;;;;;;20.40;99.90;;;;;;5076688;28;20330;-79
2021/08/04 11:20:35;;;;;;;;;;;20.40;99.90;;;;;;5075562;28;19920;-79
2021/08/04 11:23:05;;;;;;;;;;;20.50;99.90;;;;;;5076812;28;19938;-79
2021/08/04 11:25:50;;;;;;;;;;;20.50;99.90;;;;;;5076786;28;20366;-79
2021/08/04 11:28:21;;;;;;;;;;;20.50;99.90;;;;;;5076851;28;19921;-79
2021/08/04 11:30:50;;;;;;;;;;;20.40;99.90;;;;;;5076817;28;19934;-79
2021/08/04 11:33:30;;;;;;;;;;;20.40;99.90;;;;;;5076644;28;20342;-79
2021/08/04 11:36:06;;;;;;;;;;;20.40;99.90;;;;;;5076471;28;20386;-78
2021/08/04 11:38:35;;;;;;;;;;;20.40;99.90;;;;;;5076612;28;19920;-78
2021/08/04 11:41:12;;;;;;;;;;;20.40;99.90;;;;;;5076455;28;20266;-78
2021/08/04 11:43:39;;;;;;;;;;;20.50;99.90;;;;;;5075860;28;19935;-78
2021/08/04 11:46:05;;;;;;;;;;;20.50;99.90;;;;;;5075506;28;19920;-78
2021/08/04 11:48:47;;;;;;;;;;;20.50;99.90;;;;;;5076289;28;19924;-78
2021/08/04 11:51:15;;;;;;;;;;;20.50;99.90;;;;;;5076517;28;19932;-78
2021/08/04 11:53:43;;;;;;;;;;;20.50;99.90;;;;;;5076325;28;19931;-79
2021/08/04 11:56:09;;;;;;;;;;;20.50;99.90;;;;;;5076461;28;20350;-79
2021/08/04 11:58:36;;;;;;;;;;;20.50;99.90;;;;;;5076191;28;19920;-78
2021/08/04 12:01:15;;;;;;;;;;;20.60;99.90;;;;;;5076245;28;19930;-78
2021/08/04 12:03:41;;;;;;;;;;;20.50;99.90;;;;;;5076008;28;19920;-78
2021/08/04 12:06:16;;;;;;;;;;;20.60;99.90;;;;;;5076213;28;19931;-78
2021/08/04 12:08:43;;;;;;;;;;;20.60;99.90;;;;;;5074916;28;19920;-78
2021/08/04 12:11:10;;;;;;;;;;;20.70;99.90;;;;;;5076095;28;20374;-78
2021/08/04 12:13:37;;;;;;;;;;;20.80;99.90;;;;;;5075981;28;19920;-78
2021/08/04 12:16:06;;;;;;;;;;;20.90;99.90;;;;;;5075972;28;19920;-78
2021/08/04 12:18:33;;;;;;;;;;;20.90;99.90;;;;;;5075805;28;20372;-79
2021/08/04 12:21:00;;;;;;;;;;;20.80;99.90;;;;;;5076077;28;19920;-78
2021/08/04 12:23:28;;;;;;;;;;;20.80;99.90;;;;;;5075710;28;19920;-78
2021/08/04 12:25:58;;;;;;;;;;;20.80;99.90;;;;;;5075580;28;19931;-78
2021/08/04 12:28:28;;;;;;;;;;;20.90;99.90;;;;;;5075475;28;19921;-78
2021/08/04 12:30:55;;;;;;;;;;;21.00;99.90;;;;;;5075597;28;19920;-78
2021/08/04 12:33:23;;;;;;;;;;;21.10;99.90;;;;;;5075749;28;19934;-78
2021/08/04 12:36:00;;;;;;;;;;;21.10;99.90;;;;;;5075508;28;20316;-78
2021/08/04 12:38:29;;;;;;;;;;;21.10;99.90;;;;;;5075430;28;19920;-78
2021/08/04 12:40:56;;;;;;;;;;;21.10;99.90;;;;;;5075412;28;19927;-78
2021/08/04 12:43:23;;;;;;;;;;;21.00;99.90;;;;;;5075350;28;19924;-78
2021/08/04 12:45:50;;;;;;;;;;;21.00;99.90;;;;;;5075611;28;19931;-78
2021/08/04 12:48:17;;;;;;;;;;;20.90;99.90;;;;;;5075870;28;19930;-78
2021/08/04 12:50:52;;;;;;;;;;;20.90;99.90;;;;;;5075388;28;19932;-78
2021/08/04 12:53:22;;;;;;;;;;;20.90;99.90;;;;;;5075561;28;20356;-78
2021/08/04 12:55:58;;;;;;;;;;;20.90;99.90;;;;;;5075305;28;20345;-78
2021/08/04 12:58:25;;;;;;;;;;;20.80;99.90;;;;;;5075335;28;19920;-78
2021/08/04 13:00:52;;;;;;;;;;;20.80;99.90;;;;;;5075325;28;19931;-78
2021/08/04 13:03:29;;;;;;;;;;;20.90;99.90;;;;;;5075425;28;20372;-78
2021/08/04 13:05:56;;;;;;;;;;;20.90;99.90;;;;;;5075207;28;20383;-78
2021/08/04 13:08:29;;;;;;;;;;;20.90;99.90;;;;;;5075045;28;19935;-78
2021/08/04 13:10:57;;;;;;;;;;;20.90;99.90;;;;;;5075407;28;19931;-78
2021/08/04 13:13:24;;;;;;;;;;;20.80;99.90;;;;;;5075141;28;19947;-78
2021/08/04 13:15:53;;;;;;;;;;;20.80;99.90;;;;;;5075111;28;19935;-78
2021/08/04 13:18:20;;;;;;;;;;;20.70;99.90;;;;;;5074693;28;19920;-78
2021/08/04 13:20:47;;;;;;;;;;;20.70;99.90;;;;;;5074817;28;20261;-78
2021/08/04 13:23:14;;;;;;;;;;;20.60;99.90;;;;;;5074849;28;19927;-77
2021/08/04 13:25:54;;;;;;;;;;;20.60;99.90;;;;;;5075309;28;20407;-78
2021/08/04 13:28:23;;;;;;;;;;;20.70;99.90;;;;;;5074574;28;19924;-78
2021/08/04 13:30:58;;;;;;;;;;;20.80;99.90;;;;;;5074697;28;19920;-78
2021/08/04 13:33:28;;;;;;;;;;;20.90;99.90;;;;;;5074655;28;19920;-78
2021/08/04 13:35:56;;;;;;;;;;;21.00;99.90;;;;;;5074647;28;19930;-78
2021/08/04 13:38:24;;;;;;;;;;;21.20;99.90;;;;;;5075138;28;19924;-79
2021/08/04 13:40:53;;;;;;;;;;;21.30;99.90;;;;;;5074859;28;19924;-79
2021/08/04 13:43:21;;;;;;;;;;;21.40;99.90;;;;;;5074886;28;19931;-79
2021/08/04 13:45:54;;;;;;;;;;;21.30;99.90;;;;;;5074482;28;20254;-79
2021/08/04 13:48:22;;;;;;;;;;;21.20;99.90;;;;;;5074887;28;19924;-79
2021/08/04 13:50:50;;;;;;;;;;;21.20;99.90;;;;;;5074790;28;19920;-79
2021/08/04 13:53:18;;;;;;;;;;;21.10;99.90;;;;;;5074522;28;19926;-79
2021/08/04 13:55:45;;;;;;;;;;;21.10;99.90;;;;;;5074576;28;19932;-79
2021/08/04 13:58:12;;;;;;;;;;;21.20;99.90;;;;;;5074811;28;19920;-79
2021/08/04 14:00:39;;;;;;;;;;;21.20;99.90;;;;;;5073967;28;20384;-79
2021/08/04 14:03:09;;;;;;;;;;;21.20;99.90;;;;;;5074504;28;19920;-79
2021/08/04 14:05:41;;;;;;;;;;;21.20;99.90;;;;;;5074732;28;19920;-79
2021/08/04 14:08:13;;;;;;;;;;;21.20;99.90;;;;;;5074285;28;19921;-79
2021/08/04 14:10:41;;;;;;;;;;;21.10;99.90;;;;;;5074536;28;19931;-79
2021/08/04 14:13:10;;;;;;;;;;;21.00;99.90;;;;;;5074485;28;19920;-79
2021/08/04 14:15:38;;;;;;;;;;;21.00;99.90;;;;;;5074480;28;20049;-79
2021/08/04 14:18:06;;;;;;;;;;;20.90;99.90;;;;;;5074537;28;20015;-79